Tunø Airstrip

DK-0040 · 中日德兰大区, 丹麦

使用的METAR站距离机场41 km。
罗盘
风向 的 风向 080° Tunø Airstrip 7/25
风: 4 kt, 2 beaufort

4 kt

改变
0 ft 1.000 2.000 3.000 4.000 5.000
Cloud Cloud
FEW 3.500
METAR EKAH 020050Z AUTO 08004KT 1800 BR FEW035/// 05/04 Q1007

METAR Tunø Airstrip - DK-0040

Tunø Airstrip是,丹麦中的小机场。 该机场位于纬度55,95680和经度10,40926。 该机场有一条跑道: 7/25. 这个机场没有ICAO代码,我们使用DK-0040作为参考。 机场在Kobenhavn FIR中。

该航空气象观测是针对Aarhus Airport在2024年3月2日 01:50, 当地时间进行的。

机场观察

风向为080°,速度为4 kt。

可见度为1,8 km。

有几云在3.500 ft的高度。 没有观察到天花板。

当前天气为薄雾。 温度为5 °C,阵风为2 °C。 露点为4 °C,相对湿度为93%。 海平面上的气压为1007 hPa (QNH)。

白天

今天,太阳从07:05升起,在17:55降落。 这适用于Tunø Airstrip,世界夏令时可能有所不同。 当地时间与世界标准时间之间的时差为+1 小时。 当前,没有夏令时有效。

公司介绍

我们没有关于这个机场的公司信息。

体会

到Vliegles.nl去找飞行课程,跳伞和其他飞行体验。 浏览页面,了解Tunø Airstrip附近所有可用的活动。 你也可以使用搜索功能来寻找你所在地附近的特定飞行课程、跳伞或其他飞行体验。

跑道

Id 标题 侧风 逆风 侧风 %
7/25 074°-254° 4 kt 10 %

逆风成分最大的方向会被突出显示,并用于横风计算。 这并不一定意味着这个方向在使用。

乌云

3.500 ft FEW 几云

温度 & 天气

天气 薄雾
温度 5 °C
露点 4 °C
相对湿度 93%
风寒 2 °C
Kp-index 0 (0-9)

白天

日出
07:05 (4:48)
中午
12:29
日落
17:53

小工具

你想在你的网站上有一个关于Tunø Airstrip的当前航空天气(METAR)的小部件吗?

显示HTML代码
?>